026  
FGUS64 KORN 231641  
ESPORN  
 
EXTENDED STREAMFLOW PREDICTION  
NATIONAL WEATHER SERVICE RIVER FORECAST CENTER, SLIDELL, LA  
1140 AM CDT TUE MAY 23 2017  
 
DATE CPGM7 CIRI2 NMDM7 TPTT1 CRTM7 OSGA4 MEMT1 TRPM6 HEEA4  
05-24-17 36.2 42.0 31.4 34.3 32.5 30.4 31.6 44.5 42.4  
05-25-17 36.7 41.8 30.8 33.5 31.6 29.4 30.7 43.5 41.6  
05-26-17 37.0 41.7 30.5 33.1 31.1 28.9 29.7 42.5 40.9  
05-27-17 36.8 41.6 30.3 32.7 30.8 28.5 28.8 41.5 39.9  
05-28-17 36.4 41.0 30.1 32.5 30.5 28.1 27.9 40.8 38.9  
05-29-17 35.7 40.2 29.5 32.1 30.3 27.8 27.5 40.2 38.0  
05-30-17 34.6 39.3 28.6 31.5 29.6 27.1 27.1 39.8 37.2  
05-31-17 33.1 38.4 27.8 30.7 28.9 26.1 26.6 39.3 36.6  
06-01-17 31.7 36.9 26.6 29.7 28.0 25.3 26.0 38.9 35.9  
06-02-17 30.9 35.4 25.4 28.6 27.1 24.3 25.1 38.2 35.3  
06-03-17 30.6 34.0 24.2 27.4 26.1 23.3 24.0 37.4 34.7  
06-04-17 30.6 32.9 22.9 26.3 24.9 22.3 22.9 36.4 33.8  
06-05-17 30.6 32.0 22.1 25.4 23.8 21.0 21.5 35.3 32.8  
06-06-17 30.7 31.4 21.3 24.7 23.1 19.8 20.1 34.2 31.8  
06-07-17 30.7 30.8 20.5 24.1 22.5 19.0 19.2 33.1 30.8  
06-08-17 30.6 30.2 19.9 23.5 22.1 18.3 18.3 32.0 29.8  
06-09-17 30.3 29.6 19.3 22.9 21.5 17.6 17.7 31.2 28.8  
06-10-17 29.9 29.1 18.6 22.4 21.0 17.0 17.1 30.6 27.8  
06-11-17 29.3 28.5 18.0 21.8 20.5 16.5 16.6 30.1 26.9  
06-12-17 28.7 28.0 17.5 21.3 20.0 15.9 16.0 29.5 26.4  
06-13-17 28.0 27.5 17.0 20.7 19.5 15.4 15.5 28.9 25.8  
06-14-17 27.0 26.9 16.5 20.2 19.0 14.9 14.9 28.4 25.2  
06-15-17 26.2 26.4 15.9 19.7 18.5 14.3 14.4 27.9 24.6  
06-16-17 25.5 25.9 15.4 19.2 18.0 13.8 13.8 27.4 24.0  
06-17-17 24.9 25.3 14.9 18.7 17.6 13.3 13.3 26.9 23.5  
06-18-17 24.2 24.8 14.3 18.2 17.1 12.7 12.7 26.4 22.9  
06-19-17 23.4 24.2 13.8 17.8 16.7 12.2 12.2 25.9 22.4  
06-20-17 22.9 23.7 13.3 17.3 16.2 11.7 11.6 25.4 21.9  
 
DATE ARSA4 GEEM6 VCKM6 NTZM6 RRLL1 BTRL1 DONL1 RRVL1 NORL1  
05-24-17 42.0 54.3 48.6 54.9 57.6 40.1 29.4 22.6 16.1  
05-25-17 41.8 54.2 48.9 55.0 57.7 40.3 29.6 22.7 16.2  
05-26-17 41.3 54.0 49.0 55.2 57.9 40.5 29.6 22.8 16.3  
05-27-17 40.5 53.6 48.8 55.4 58.1 40.6 29.7 22.9 16.3  
05-28-17 39.7 53.1 48.5 55.5 58.3 40.7 29.8 22.9 16.4  
05-29-17 38.9 52.6 47.9 55.5 58.5 40.9 29.9 22.9 16.4  
05-30-17 38.4 52.0 47.2 55.3 58.5 41.0 29.9 23.0 16.5  
05-31-17 37.8 51.3 46.5 54.9 58.4 41.0 30.0 23.0 16.5  
06-01-17 37.2 50.5 45.7 54.5 58.2 41.0 30.0 23.0 16.5  
06-02-17 36.7 49.8 45.1 53.8 57.8 40.9 30.0 23.0 16.5  
06-03-17 36.1 49.1 44.5 53.2 57.3 40.8 30.0 23.0 16.5  
06-04-17 35.5 48.4 43.9 52.5 56.7 40.6 29.8 23.0 16.5  
06-05-17 34.9 47.7 43.2 51.8 56.1 40.2 29.6 23.0 16.5  
06-06-17 34.3 47.0 42.6 51.1 55.4 39.8 29.4 22.9 16.5  
06-07-17 33.4 46.3 42.0 50.5 54.8 39.3 29.1 22.7 16.4  
06-08-17 32.4 45.5 41.4 49.8 54.2 38.7 28.7 22.5 16.3  
06-09-17 31.4 44.6 40.8 49.1 53.5 38.1 28.3 22.3 16.2  
06-10-17 30.4 43.7 40.0 48.3 52.7 37.5 27.9 22.1 16.0  
06-11-17 29.4 42.8 39.0 47.4 51.9 36.8 27.4 21.8 15.9  
06-12-17 28.6 42.0 38.1 46.5 51.0 36.3 27.0 21.5 15.7  
06-13-17 27.8 41.2 37.1 45.5 50.2 35.6 26.5 21.2 15.5  
06-14-17 27.0 40.5 36.3 44.6 49.3 35.0 26.1 20.9 15.3  
06-15-17 26.3 39.8 35.6 43.7 48.5 34.4 25.7 20.6 15.1  
06-16-17 25.8 39.0 35.0 43.0 47.8 33.8 25.2 20.3 15.0  
06-17-17 25.2 38.5 34.3 42.2 47.1 33.2 24.8 20.1 14.8  
06-18-17 24.7 38.1 33.7 41.4 46.3 32.6 24.2 19.8 14.6  
06-19-17 24.2 37.6 33.0 40.7 45.6 32.0 23.8 19.4 14.4  
06-20-17 23.6 37.1 32.4 40.0 44.9 31.4 23.4 19.1 14.2  
 
NOTE: STAGE FORECASTS ARE BASED ON FUTURE RAINFALL COVERING  
THE NEXT 48 HOURS.  
 
END ORN  
 

 
 
CLICK HERE TO GO TO PREVIOUS BULLETINS.

The Nexlab RFC Page Main Text Page